Time;durP1;ratioP1;P1;durP2;ratioP2;P2;SDS_P1;SDS_P2;PMS_P1;PMS_P2;Temp;Humidity;BMP_temperature;BMP_pressure;BME280_temperature;BME280_humidity;BME280_pressure;Samples;Min_cycle;Max_cycle;Signal;HPM_P1;HPM_P2
2022/12/30 00:02:06;;;;;;;1.33;1.15;;;;;;;7.34;70.74;100574.13;5103346;29;20055;-79
2022/12/30 00:04:36;;;;;;;0.60;0.57;;;;;;;7.29;70.60;100568.16;5090372;28;20265;-78
2022/12/30 00:07:07;;;;;;;0.65;0.65;;;;;;;7.24;71.00;100570.81;5097596;29;20138;-79
2022/12/30 00:09:37;;;;;;;0.93;0.60;;;;;;;7.28;70.29;100561.19;5098996;28;20100;-79
2022/12/30 00:35:21;;;;;;;8.15;1.38;;;;;;;7.23;70.75;100583.00;5107100;28;20094;-79
2022/12/30 00:37:51;;;;;;;0.30;0.30;;;;;;;7.26;70.74;100584.72;5095284;29;20047;-78
2022/12/30 00:40:22;;;;;;;0.30;0.30;;;;;;;7.20;70.26;100579.56;5090813;28;20039;-79
2022/12/30 00:43:08;;;;;;;0.63;0.63;;;;;;;7.15;70.83;100581.41;5096799;29;20039;-79
2022/12/30 00:45:42;;;;;;;0.80;0.80;;;;;;;7.18;70.68;100586.59;5086397;29;20138;-79
2022/12/30 00:56:42;;;;;;;8.68;2.65;;;;;;;7.11;71.10;100595.41;5094492;29;20256;-78
2022/12/30 00:59:13;;;;;;;0.30;0.30;;;;;;;7.15;71.17;100595.28;5107356;28;20422;-78
2022/12/30 01:01:43;;;;;;;0.45;0.45;;;;;;;7.16;70.61;100601.41;5106686;29;20026;-78
2022/12/30 01:04:14;;;;;;;0.30;0.30;;;;;;;7.12;70.75;100607.53;5092284;28;20035;-78
2022/12/30 01:06:44;;;;;;;5.40;1.08;;;;;;;7.10;70.97;100594.50;5122472;28;20111;-78
2022/12/30 01:09:15;;;;;;;0.98;0.98;;;;;;;7.16;70.80;100602.25;5096846;28;20287;-78
2022/12/30 01:12:07;;;;;;;0.30;0.30;;;;;;;7.22;70.33;100596.06;5089354;29;20123;-78
2022/12/30 01:14:41;;;;;;;0.30;0.30;;;;;;;7.23;70.50;100603.88;5100189;28;20067;-79
2022/12/30 01:17:16;;;;;;;0.30;0.30;;;;;;;7.23;70.68;100606.47;5101813;29;20288;-79
2022/12/30 01:19:46;;;;;;;0.40;0.40;;;;;;;7.29;70.09;100612.50;5102725;28;20094;-78
2022/12/30 01:22:17;;;;;;;0.65;0.65;;;;;;;7.22;70.53;100611.72;5120901;28;20024;-79
2022/12/30 01:24:48;;;;;;;0.38;0.38;;;;;;;7.25;70.80;100616.91;5101433;28;20142;-78
2022/12/30 01:27:18;;;;;;;1.67;1.05;;;;;;;7.29;70.51;100620.34;5105986;29;20078;-78
2022/12/30 01:29:49;;;;;;;0.30;0.30;;;;;;;7.33;70.35;100628.09;5093867;28;20411;-78
2022/12/30 01:32:21;;;;;;;0.68;0.68;;;;;;;7.35;70.77;100622.84;5100544;29;20303;-78
2022/12/30 01:34:53;;;;;;;0.70;0.70;;;;;;;7.29;70.31;100620.34;5106556;28;20056;-78
2022/12/30 01:37:23;;;;;;;0.30;0.30;;;;;;;7.36;70.33;100616.75;5080867;29;20032;-79
2022/12/30 01:39:54;;;;;;;0.30;0.30;;;;;;;7.37;70.11;100623.69;5122865;28;20110;-79
2022/12/30 01:42:27;;;;;;;2.60;1.35;;;;;;;7.49;70.22;100623.50;5088854;29;20024;-78
2022/12/30 01:44:59;;;;;;;;;;;;;;;7.43;70.12;100618.38;5096293;29;20039;-78
2022/12/30 01:47:54;;;;;;;0.60;0.60;;;;;;;7.35;69.85;100620.25;5112290;28;19914;-79
2022/12/30 01:50:50;;;;;;;0.30;0.30;;;;;;;7.40;69.87;100628.84;5087007;28;20051;-78
2022/12/30 01:53:34;;;;;;;0.30;0.30;;;;;;;7.42;70.30;100632.31;5107834;29;20240;-78
2022/12/30 01:56:06;;;;;;;0.32;0.32;;;;;;;7.49;70.44;100638.31;5111880;28;20502;-78
2022/12/30 01:58:45;;;;;;;0.73;0.73;;;;;;;7.40;70.01;100634.94;5097466;29;20118;-78
2022/12/30 02:01:17;;;;;;;0.30;0.30;;;;;;;7.50;70.45;100637.41;5082707;28;20036;-79
2022/12/30 02:04:00;;;;;;;0.30;0.30;;;;;;;7.41;70.27;100633.19;5099438;29;20040;-79
2022/12/30 02:06:41;;;;;;;0.30;0.30;;;;;;;7.38;69.83;100641.94;5111717;28;20338;-79
2022/12/30 02:09:11;;;;;;;0.80;0.77;;;;;;;7.31;69.92;100636.84;5112893;28;20068;-78
2022/12/30 02:11:41;;;;;;;0.30;0.30;;;;;;;7.30;70.13;100642.94;5111243;28;20031;-79
2022/12/30 02:14:12;;;;;;;1.60;1.45;;;;;;;7.23;70.19;100648.22;5113221;28;20047;-78
2022/12/30 02:16:43;;;;;;;0.28;0.28;;;;;;;7.28;70.05;100637.72;5100855;29;20031;-78
2022/12/30 02:19:41;;;;;;;0.63;0.63;;;;;;;7.38;70.22;100638.47;5088469;28;20387;-78
2022/12/30 02:22:31;;;;;;;2.22;0.90;;;;;;;7.42;70.32;100637.53;5126492;28;20074;-78
2022/12/30 02:25:46;;;;;;;0.82;0.82;;;;;;;7.50;70.02;100643.50;5082548;29;20145;-78
2022/12/30 02:28:54;;;;;;;0.68;0.68;;;;;;;7.46;70.19;100649.66;5054694;29;20065;-78
2022/12/30 02:31:24;;;;;;;0.60;0.60;;;;;;;7.30;69.71;100642.94;5052017;29;20037;-78
2022/12/30 02:33:55;;;;;;;0.20;0.20;;;;;;;7.37;70.16;100644.56;5115455;28;20047;-78
2022/12/30 02:36:30;;;;;;;2.40;1.48;;;;;;;7.39;70.25;100641.06;5087439;28;20124;-78
2022/12/30 02:39:04;;;;;;;9.27;1.85;;;;;;;7.41;70.33;100641.03;5124571;29;20485;-78
2022/12/30 02:44:43;;;;;;;0.30;0.30;;;;;;;7.31;70.13;100647.28;5116364;28;20070;-78
2022/12/30 02:47:34;;;;;;;0.30;0.30;;;;;;;7.25;70.02;100643.88;5111465;29;20061;-78
2022/12/30 02:53:20;;;;;;;0.50;0.50;;;;;;;7.36;70.29;100632.41;5129077;28;20050;-78
2022/12/30 02:55:51;;;;;;;7.60;1.48;;;;;;;7.29;70.08;100644.69;5111576;28;20039;-78
2022/12/30 02:58:25;;;;;;;6.80;0.77;;;;;;;7.33;70.41;100638.53;5113051;29;20059;-78
2022/12/30 03:04:16;;;;;;;0.30;0.30;;;;;;;7.37;70.14;100650.66;5110075;28;20511;-78
2022/12/30 03:06:57;;;;;;;0.75;0.75;;;;;;;7.37;70.00;100641.97;5105715;29;20250;-78
2022/12/30 03:09:40;;;;;;;0.43;0.43;;;;;;;7.38;70.16;100641.09;5102757;28;20047;-78
2022/12/30 03:12:22;;;;;;;0.55;0.55;;;;;;;7.32;70.27;100630.72;5104701;28;20051;-78
2022/12/30 03:15:08;;;;;;;0.30;0.30;;;;;;;7.28;70.36;100627.28;5090509;29;20457;-79
2022/12/30 03:17:41;;;;;;;0.32;0.32;;;;;;;7.09;70.78;100624.09;5085999;29;20049;-80
2022/12/30 03:20:15;;;;;;;1.45;0.88;;;;;;;7.08;70.88;100612.81;5091403;28;20299;-79
2022/12/30 03:28:33;;;;;;;0.40;0.40;;;;;;;7.22;70.31;100617.84;5107375;29;20349;-80
2022/12/30 03:31:09;;;;;;;1.50;1.40;;;;;;;7.27;70.65;100609.06;5104910;28;20051;-81
2022/12/30 03:33:41;;;;;;;0.40;0.40;;;;;;;7.26;70.81;100608.22;5107722;29;20103;-81
2022/12/30 03:36:27;;;;;;;5.38;1.80;;;;;;;7.24;71.01;100607.34;5091655;29;20042;-79
2022/12/30 03:39:02;;;;;;;0.55;0.55;;;;;;;7.28;70.48;100608.19;5091017;29;20145;-79
2022/12/30 03:41:33;;;;;;;0.30;0.30;;;;;;;7.23;70.87;100606.47;5121231;28;20059;-81
2022/12/30 03:44:04;;;;;;;0.43;0.43;;;;;;;7.13;71.09;100607.53;5085816;29;20032;-81
2022/12/30 03:46:35;;;;;;;0.32;0.32;;;;;;;7.28;70.96;100597.72;5096610;29;20528;-80
2022/12/30 03:49:05;;;;;;;0.35;0.35;;;;;;;7.31;70.89;100595.09;5121792;28;20449;-82
2022/12/30 03:51:36;;;;;;;0.30;0.30;;;;;;;7.27;70.97;100581.22;5115902;28;20035;-79
2022/12/30 03:54:06;;;;;;;0.50;0.50;;;;;;;7.31;70.58;100590.72;5108458;28;20117;-82
2022/12/30 03:56:37;;;;;;;0.82;0.82;;;;;;;7.25;70.66;100588.22;5105701;29;20043;-81
2022/12/30 03:59:07;;;;;;;0.32;0.32;;;;;;;7.16;71.20;100590.97;5104455;28;20039;-81
2022/12/30 04:01:37;;;;;;;3.53;1.48;;;;;;;7.16;71.39;100589.19;5101999;29;20040;-79
2022/12/30 04:04:08;;;;;;;0.50;0.50;;;;;;;7.22;70.88;100594.34;5105646;28;20043;-78
2022/12/30 04:06:38;;;;;;;1.83;1.15;;;;;;;7.21;71.21;100587.41;5120854;28;20117;-79
2022/12/30 04:09:09;;;;;;;0.60;0.60;;;;;;;7.08;70.91;100583.22;5121462;28;20563;-79
2022/12/30 04:11:39;;;;;;;0.93;0.93;;;;;;;7.17;70.64;100567.44;5094954;29;20437;-80
2022/12/30 04:14:10;;;;;;;0.30;0.30;;;;;;;7.17;70.85;100574.41;5093884;28;20082;-80
2022/12/30 04:16:41;;;;;;;1.67;1.08;;;;;;;7.19;70.82;100576.13;5094590;29;20026;-79
2022/12/30 04:19:11;;;;;;;1.45;0.77;;;;;;;7.11;71.01;100570.16;5091105;28;20040;-81
2022/12/30 04:21:42;;;;;;;0.55;0.55;;;;;;;7.05;70.95;100565.03;5112369;29;20034;-82
2022/12/30 04:24:12;;;;;;;0.60;0.60;;;;;;;7.10;70.72;100563.19;5110751;28;20035;-80
2022/12/30 04:26:43;;;;;;;0.73;0.73;;;;;;;7.10;70.87;100573.63;5094067;29;20027;-80
2022/12/30 04:29:13;;;;;;;0.40;0.40;;;;;;;7.04;70.51;100578.97;5079820;28;20035;-81
2022/12/30 04:31:44;;;;;;;0.47;0.47;;;;;;;7.02;70.65;100567.69;5108213;29;20434;-79
2022/12/30 04:34:14;;;;;;;0.30;0.30;;;;;;;7.09;70.66;100567.56;5093487;28;20050;-82
2022/12/30 04:36:45;;;;;;;0.40;0.40;;;;;;;7.06;70.48;100561.53;5090706;29;20056;-79
2022/12/30 04:39:15;;;;;;;0.30;0.30;;;;;;;6.91;71.12;100566.06;5096168;28;20438;-82
2022/12/30 04:41:47;;;;;;;0.35;0.35;;;;;;;6.79;71.85;100574.09;5104543;29;20044;-80
2022/12/30 04:44:18;;;;;;;0.32;0.32;;;;;;;6.93;71.20;100572.13;5086815;28;20036;-81
2022/12/30 04:46:48;;;;;;;0.38;0.38;;;;;;;6.83;71.30;100572.31;5088982;29;20039;-79
2022/12/30 04:49:19;;;;;;;0.20;0.20;;;;;;;6.80;71.31;100568.00;5092973;28;20066;-80
2022/12/30 04:51:49;;;;;;;0.30;0.30;;;;;;;6.88;70.87;100576.56;5080717;29;20057;-80
2022/12/30 04:54:20;;;;;;;0.90;0.85;;;;;;;6.88;70.93;100576.56;5102760;28;20046;-81
2022/12/30 04:56:50;;;;;;;0.80;0.80;;;;;;;6.77;71.16;100586.28;5089905;29;20038;-79
2022/12/30 04:59:21;;;;;;;0.30;0.30;;;;;;;6.82;71.43;100594.03;5104644;28;20293;-79
2022/12/30 05:01:51;;;;;;;0.30;0.30;;;;;;;6.85;70.91;100599.22;5083682;29;20360;-81
2022/12/30 05:04:22;;;;;;;0.98;0.90;;;;;;;6.69;71.77;100602.03;5119025;28;20047;-80
2022/12/30 05:06:52;;;;;;;0.30;0.30;;;;;;;6.81;71.46;100607.97;5090263;29;20070;-79
2022/12/30 05:09:31;;;;;;;0.30;0.30;;;;;;;6.77;71.02;100597.59;5119243;28;20031;-81
2022/12/30 05:12:02;;;;;;;0.40;0.40;;;;;;;6.84;70.97;100603.56;5100965;29;20501;-81
2022/12/30 05:14:35;;;;;;;0.30;0.30;;;;;;;6.87;71.17;100598.31;5077873;28;20187;-82
2022/12/30 05:17:06;;;;;;;1.10;1.10;;;;;;;6.82;71.00;100599.25;5098716;29;20517;-81
2022/12/30 05:19:36;;;;;;;0.70;0.68;;;;;;;6.85;70.86;100600.06;5097717;28;20043;-81
2022/12/30 05:22:06;;;;;;;3.33;1.60;;;;;;;6.82;70.66;100610.53;5089990;29;20035;-83
2022/12/30 05:27:26;;;;;;;0.90;0.88;;;;;;;6.83;71.03;100614.88;5111605;28;20490;-84
2022/12/30 05:29:57;;;;;;;0.40;0.40;;;;;;;6.75;70.96;100608.91;5112482;29;20056;-83
2022/12/30 05:32:27;;;;;;;0.60;0.60;;;;;;;6.72;70.86;100609.81;5106368;29;20510;-83
2022/12/30 05:34:57;;;;;;;0.60;0.60;;;;;;;6.71;70.89;100612.44;5114539;28;20035;-83
2022/12/30 05:37:28;;;;;;;3.28;2.97;;;;;;;6.70;71.22;100605.50;5113706;28;20031;-81
2022/12/30 05:39:58;;;;;;;0.70;0.70;;;;;;;6.78;71.23;100603.66;5123429;28;20139;-82
2022/12/30 05:42:29;;;;;;;0.40;0.40;;;;;;;6.66;71.54;100593.38;5091289;29;20273;-81
2022/12/30 05:45:00;;;;;;;0.85;0.70;;;;;;;6.67;71.20;100593.38;5090735;29;20055;-82
2022/12/30 05:47:30;;;;;;;0.30;0.30;;;;;;;6.69;70.95;100595.94;5107541;28;20028;-83
2022/12/30 05:50:01;;;;;;;1.70;1.60;;;;;;;6.68;71.23;100600.31;5106306;28;20043;-80
2022/12/30 05:52:31;;;;;;;0.28;0.28;;;;;;;6.68;70.93;100591.63;5092627;29;20028;-83
2022/12/30 05:55:02;;;;;;;1.38;1.13;;;;;;;6.69;71.58;100588.13;5096159;29;20496;-83
2022/12/30 05:57:32;;;;;;;0.50;0.50;;;;;;;6.63;71.08;100589.06;5079566;29;20038;-80
2022/12/30 06:00:03;;;;;;;1.05;1.05;;;;;;;6.65;71.49;100587.31;5083652;28;20051;-83
2022/12/30 06:02:33;;;;;;;0.95;0.70;;;;;;;6.68;71.12;100586.41;5105974;29;20035;-81
2022/12/30 06:05:04;;;;;;;0.65;0.65;;;;;;;6.74;71.13;100575.88;5089293;28;20044;-83
2022/12/30 06:07:35;;;;;;;0.50;0.50;;;;;;;6.67;71.30;100572.50;5080518;29;20075;-82
2022/12/30 06:10:07;;;;;;;2.03;1.00;;;;;;;6.59;71.45;100567.38;5109921;28;20040;-81
2022/12/30 06:12:37;;;;;;;0.30;0.30;;;;;;;6.61;71.31;100562.19;5090544;29;20022;-81
2022/12/30 06:15:10;;;;;;;0.30;0.30;;;;;;;6.61;71.15;100555.19;5102627;28;20048;-85
2022/12/30 06:17:42;;;;;;;0.30;0.30;;;;;;;6.68;71.17;100556.00;5121459;29;20115;-85
2022/12/30 06:20:34;;;;;;;0.30;0.30;;;;;;;6.68;71.16;100560.31;5132958;28;20252;-84
2022/12/30 06:23:06;;;;;;;0.40;0.40;;;;;;;6.67;70.70;100558.59;5103936;29;20027;-85
2022/12/30 06:25:36;;;;;;;0.43;0.43;;;;;;;6.70;70.80;100558.56;5113660;29;20058;-84
2022/12/30 06:28:07;;;;;;;0.52;0.52;;;;;;;6.61;71.12;100560.41;5111035;29;20051;-85
2022/12/30 06:30:37;;;;;;;0.30;0.30;;;;;;;6.61;71.20;100560.41;5105141;29;20050;-84
2022/12/30 06:33:08;;;;;;;0.30;0.30;;;;;;;6.62;71.10;100563.88;5109338;29;20027;-83
2022/12/30 06:35:38;;;;;;;0.30;0.30;;;;;;;6.52;71.54;100560.53;5112482;29;20038;-84
2022/12/30 06:38:09;;;;;;;0.30;0.30;;;;;;;6.52;71.44;100562.28;5107382;29;20042;-83
2022/12/30 06:40:39;;;;;;;0.30;0.30;;;;;;;6.46;71.85;100551.03;5103097;28;20524;-84
2022/12/30 06:43:10;;;;;;;0.93;0.93;;;;;;;6.52;71.45;100538.84;5104452;29;20066;-84
2022/12/30 06:45:41;;;;;;;0.30;0.30;;;;;;;6.63;71.11;100526.50;5113538;28;20075;-84
2022/12/30 06:48:12;;;;;;;0.50;0.50;;;;;;;6.59;71.45;100524.81;5107262;29;20094;-84
2022/12/30 06:50:43;;;;;;;0.30;0.30;;;;;;;6.56;71.39;100525.75;5094182;28;20044;-84
2022/12/30 06:53:14;;;;;;;0.30;0.30;;;;;;;6.65;71.18;100518.66;5110450;29;20039;-84
2022/12/30 06:55:44;;;;;;;0.40;0.40;;;;;;;6.58;71.22;100517.88;5117110;28;20046;-84
2022/12/30 06:58:15;;;;;;;0.30;0.30;;;;;;;6.51;71.47;100506.66;5096588;29;20042;-83
2022/12/30 07:00:45;;;;;;;0.75;0.75;;;;;;;6.53;71.38;100509.28;5100728;29;20039;-84
2022/12/30 07:03:16;;;;;;;0.30;0.30;;;;;;;6.54;71.22;100522.28;5119925;28;20126;-84
2022/12/30 07:05:46;;;;;;;1.35;1.10;;;;;;;6.54;71.37;100511.84;5103734;29;20031;-84
2022/12/30 07:08:16;;;;;;;0.28;0.28;;;;;;;6.63;71.60;100517.81;5136192;28;20046;-84
2022/12/30 07:10:47;;;;;;;0.38;0.38;;;;;;;6.60;71.52;100521.34;5098623;28;20028;-83
2022/12/30 07:13:18;;;;;;;0.63;0.63;;;;;;;6.68;71.31;100519.50;5113910;29;20059;-84
2022/12/30 07:15:48;;;;;;;0.63;0.60;;;;;;;6.56;71.89;100525.75;5105169;29;20256;-83
2022/12/30 07:18:19;;;;;;;0.73;0.73;;;;;;;6.63;71.41;100518.66;5122803;29;20034;-84
2022/12/30 07:20:49;;;;;;;0.52;0.52;;;;;;;6.58;71.58;100512.66;5101151;28;20206;-85
2022/12/30 07:23:20;;;;;;;1.58;0.98;;;;;;;6.59;71.78;100509.19;5104383;29;20042;-84
2022/12/30 07:25:51;;;;;;;0.30;0.30;;;;;;;6.65;71.41;100514.31;5103825;29;20094;-85
2022/12/30 07:28:21;;;;;;;0.45;0.45;;;;;;;6.71;71.11;100502.94;5108989;29;20263;-84
2022/12/30 07:30:52;;;;;;;1.10;1.00;;;;;;;6.61;71.60;100492.63;5092911;28;20252;-84
2022/12/30 07:33:22;;;;;;;0.30;0.30;;;;;;;6.56;71.87;100486.63;5135774;28;20072;-85
2022/12/30 07:35:53;;;;;;;0.40;0.40;;;;;;;6.64;72.09;100485.66;5107510;28;20066;-83
2022/12/30 07:38:23;;;;;;;0.30;0.30;;;;;;;6.63;71.89;100478.72;5107044;29;20435;-83
2022/12/30 07:40:54;;;;;;;4.53;1.23;;;;;;;6.54;72.70;100483.19;5094576;29;20039;-85
2022/12/30 07:43:24;;;;;;;0.30;0.30;;;;;;;6.53;72.26;100471.03;5113252;28;20039;-83
2022/12/30 07:45:54;;;;;;;0.45;0.40;;;;;;;6.56;72.35;100468.38;5098127;28;20040;-83
2022/12/30 07:48:25;;;;;;;0.82;0.82;;;;;;;6.52;72.82;100466.69;5134821;28;20043;-82
2022/12/30 07:50:55;;;;;;;0.75;0.63;;;;;;;6.54;72.49;100470.16;5110762;29;20044;-85
2022/12/30 07:53:26;;;;;;;0.47;0.38;;;;;;;6.48;73.16;100470.25;5095938;29;20027;-84
2022/12/30 07:55:56;;;;;;;0.30;0.30;;;;;;;6.56;72.77;100476.22;5100074;28;20229;-83
2022/12/30 07:58:27;;;;;;;0.30;0.30;;;;;;;6.46;73.42;100472.84;5118007;29;20055;-85
2022/12/30 08:00:58;;;;;;;0.90;0.90;;;;;;;6.43;74.03;100466.81;5099345;28;20054;-84
2022/12/30 08:03:28;;;;;;;0.30;0.30;;;;;;;6.53;73.20;100468.41;5112134;29;20031;-84
2022/12/30 08:06:11;;;;;;;0.30;0.30;;;;;;;6.59;73.51;100462.25;5127605;28;20069;-84
2022/12/30 08:08:43;;;;;;;0.40;0.40;;;;;;;6.50;73.86;100451.97;5100423;29;20157;-85
2022/12/30 08:11:15;;;;;;;0.50;0.50;;;;;;;6.51;74.40;100459.75;5113956;28;20477;-83
2022/12/30 08:13:46;;;;;;;0.40;0.40;;;;;;;6.54;73.99;100464.94;5100003;29;20059;-84
2022/12/30 08:16:16;;;;;;;0.30;0.30;;;;;;;6.46;74.24;100451.16;5097001;29;20031;-85
2022/12/30 08:18:47;;;;;;;0.30;0.30;;;;;;;6.49;74.51;100451.09;5105285;29;20478;-83
2022/12/30 08:21:18;;;;;;;0.30;0.30;;;;;;;6.58;73.91;100440.53;5092361;29;20035;-84
2022/12/30 08:23:48;;;;;;;2.22;0.82;;;;;;;6.64;73.96;100438.72;5092857;29;20058;-83
2022/12/30 08:26:21;;;;;;;0.30;0.30;;;;;;;6.59;74.52;100437.03;5117197;28;20043;-84
2022/12/30 08:28:52;;;;;;;0.30;0.30;;;;;;;6.62;74.38;100415.28;5100692;29;20035;-83
2022/12/30 08:31:25;;;;;;;0.30;0.30;;;;;;;6.61;74.30;100413.56;5130871;28;20290;-84
2022/12/30 08:33:56;;;;;;;;;;;;;;;6.66;74.05;100414.34;5108159;29;20031;-83
2022/12/30 08:36:28;;;;;;;0.65;0.65;;;;;;;6.65;74.63;100411.78;5085134;29;19914;-85
2022/12/30 08:39:01;;;;;;;0.30;0.30;;;;;;;6.66;74.70;100408.25;5118151;29;20039;-83
2022/12/30 08:41:39;;;;;;;0.50;0.50;;;;;;;6.67;74.44;100407.38;5112609;28;20044;-85
2022/12/30 08:44:10;;;;;;;0.30;0.30;;;;;;;6.74;74.23;100401.19;5103379;29;20110;-85
2022/12/30 08:46:41;;;;;;;0.30;0.30;;;;;;;6.63;75.36;100396.13;5097193;29;20069;-85
2022/12/30 08:49:12;;;;;;;0.52;0.52;;;;;;;6.77;74.84;100391.59;5119003;29;20123;-86
2022/12/30 08:51:42;;;;;;;0.73;0.73;;;;;;;6.68;75.26;100385.63;5136214;28;20067;-85
2022/12/30 08:54:14;;;;;;;0.85;0.85;;;;;;;6.78;74.80;100374.19;5105823;29;20038;-85
2022/12/30 08:56:45;;;;;;;0.43;0.43;;;;;;;6.74;75.60;100377.72;5097826;29;20051;-86
2022/12/30 08:59:16;;;;;;;0.65;0.65;;;;;;;6.76;75.06;100373.34;5118950;28;20086;-84
2022/12/30 09:01:47;;;;;;;0.30;0.30;;;;;;;6.80;75.53;100371.53;5104347;29;20070;-84
2022/12/30 09:04:17;;;;;;;0.30;0.30;;;;;;;6.83;76.07;100372.34;5099035;29;20549;-85
2022/12/30 09:06:48;;;;;;;0.50;0.50;;;;;;;6.83;75.66;100382.78;5098611;29;20050;-85
2022/12/30 09:09:19;;;;;;;0.30;0.30;;;;;;;6.88;75.39;100380.09;5095472;29;20077;-85
2022/12/30 09:11:49;;;;;;;0.30;0.30;;;;;;;6.92;75.16;100372.19;5095398;29;20043;-84
2022/12/30 09:14:20;;;;;;;1.45;0.85;;;;;;;6.92;75.59;100369.56;5107826;23;20069;-86
2022/12/30 09:16:50;;;;;;;0.30;0.30;;;;;;;7.05;74.80;100353.72;5126045;28;20545;-85
2022/12/30 09:19:21;;;;;;;0.40;0.40;;;;;;;7.04;75.05;100336.34;5132508;28;20039;-87
2022/12/30 09:21:51;;;;;;;3.70;1.90;;;;;;;7.05;75.11;100340.69;5127666;28;20511;-86
2022/12/30 09:24:22;;;;;;;0.38;0.38;;;;;;;7.12;74.98;100334.44;5141289;28;20043;-86
2022/12/30 09:26:52;;;;;;;0.30;0.30;;;;;;;7.15;75.16;100330.91;5119723;28;20042;-84
2022/12/30 09:29:23;;;;;;;0.50;0.50;;;;;;;7.15;75.15;100312.66;5124257;28;20039;-84
2022/12/30 09:31:53;;;;;;;0.30;0.30;;;;;;;7.23;74.59;100329.03;5131276;28;20067;-87
2022/12/30 09:34:24;;;;;;;0.30;0.30;;;;;;;7.23;74.86;100318.59;5126456;28;20042;-85
2022/12/30 09:36:54;;;;;;;0.70;0.70;;;;;;;7.28;75.16;100310.66;5140875;28;20039;-85
2022/12/30 09:39:31;;;;;;;1.17;0.77;;;;;;;7.40;74.23;100308.66;5124179;28;20042;-85
2022/12/30 09:45:08;;;;;;;0.30;0.30;;;;;;;7.48;74.20;100307.66;5127527;28;20173;-82
2022/12/30 09:47:45;;;;;;;0.45;0.45;;;;;;;7.46;73.89;100289.41;5121305;28;20276;-84
2022/12/30 09:50:45;;;;;;;0.30;0.30;;;;;;;7.57;73.88;100282.19;5110847;28;20582;-83
2022/12/30 09:53:49;;;;;;;0.73;0.73;;;;;;;7.54;73.99;100271.84;5099191;28;20244;-83
2022/12/30 09:56:29;;;;;;;0.30;0.30;;;;;;;7.59;73.49;100278.69;5121647;28;20114;-84
2022/12/30 09:59:12;;;;;;;0.35;0.35;;;;;;;7.61;73.80;100263.84;5125851;28;20039;-83
2022/12/30 10:01:45;;;;;;;0.30;0.30;;;;;;;7.66;73.52;100272.44;5117165;28;20075;-85
2022/12/30 10:04:18;;;;;;;0.30;0.30;;;;;;;7.71;73.45;100270.59;5120081;28;20054;-84
2022/12/30 10:07:05;;;;;;;0.30;0.30;;;;;;;7.79;73.32;100260.84;5103604;28;20054;-83
2022/12/30 10:09:42;;;;;;;0.50;0.50;;;;;;;7.74;73.43;100249.63;5127275;28;20504;-84
2022/12/30 10:12:24;;;;;;;0.20;0.20;;;;;;;7.78;73.34;100258.25;5119648;28;20054;-84
2022/12/30 10:15:20;;;;;;;0.30;0.30;;;;;;;7.84;73.26;100247.66;5123830;28;20046;-83
2022/12/30 10:18:25;;;;;;;0.57;0.57;;;;;;;7.91;73.02;100253.59;5141123;28;20199;-84
2022/12/30 10:20:55;;;;;;;0.30;0.30;;;;;;;7.88;72.87;100250.19;5118432;28;20109;-84
2022/12/30 10:23:36;;;;;;;0.30;0.30;;;;;;;7.95;72.97;100244.81;5126151;28;20569;-83
2022/12/30 10:26:18;;;;;;;0.63;0.63;;;;;;;8.03;72.73;100238.47;5129784;28;20038;-84
2022/12/30 10:28:59;;;;;;;0.98;0.98;;;;;;;8.04;73.00;100248.03;5146586;28;20061;-85
2022/12/30 10:31:34;;;;;;;0.32;0.32;;;;;;;7.99;72.75;100230.75;5141775;28;20045;-85
2022/12/30 10:34:14;;;;;;;0.57;0.57;;;;;;;8.06;72.33;100226.25;5122676;28;20038;-83
2022/12/30 10:37:05;;;;;;;0.28;0.28;;;;;;;8.11;72.18;100225.25;5150665;28;20070;-83
2022/12/30 10:39:40;;;;;;;0.20;0.20;;;;;;;8.09;72.25;100229.66;5127796;28;20259;-84
2022/12/30 10:42:16;;;;;;;0.50;0.50;;;;;;;8.11;72.21;100217.41;5130486;28;20031;-85
2022/12/30 10:45:05;;;;;;;0.40;0.40;;;;;;;8.11;72.28;100220.03;5129769;28;20034;-85
2022/12/30 10:48:15;;;;;;;6.45;0.82;;;;;;;8.13;72.02;100210.41;5129965;28;20046;-84
2022/12/30 10:50:48;;;;;;;0.25;0.25;;;;;;;8.14;72.27;100192.94;5075055;28;20042;-84
2022/12/30 10:53:21;;;;;;;0.38;0.38;;;;;;;8.19;72.37;100184.09;5119479;28;20529;-84
2022/12/30 10:55:58;;;;;;;3.47;0.98;;;;;;;8.24;72.05;100180.50;5120894;28;20047;-84
2022/12/30 10:58:47;;;;;;;0.35;0.35;;;;;;;8.25;71.42;100174.38;5135266;28;20042;-84
2022/12/30 11:01:21;;;;;;;0.30;0.30;;;;;;;8.35;72.05;100162.78;5135314;28;20173;-85
2022/12/30 11:03:56;;;;;;;0.40;0.40;;;;;;;8.31;71.11;100156.78;5136260;28;20082;-83
2022/12/30 11:06:36;;;;;;;0.30;0.30;;;;;;;8.31;71.20;100127.16;5113282;28;20224;-84
2022/12/30 11:09:12;;;;;;;0.30;0.30;;;;;;;8.27;71.47;100130.75;5145702;28;20138;-84
2022/12/30 11:14:46;;;;;;;0.30;0.30;;;;;;;8.27;71.61;100102.00;5129660;28;20046;-84
2022/12/30 11:17:19;;;;;;;0.30;0.30;;;;;;;8.33;71.19;100104.44;5135962;28;20051;-85
2022/12/30 11:19:51;;;;;;;;;;;;;;;8.34;71.18;100106.16;5135307;28;20042;-85
2022/12/30 11:22:22;;;;;;;1.40;1.30;;;;;;;8.31;71.21;100111.47;5123041;28;20001;-83
2022/12/30 11:25:14;;;;;;;0.63;0.63;;;;;;;8.31;71.21;100108.84;5128785;28;20675;-83
2022/12/30 11:27:52;;;;;;;0.30;0.30;;;;;;;8.42;70.91;100087.66;5129755;28;20027;-83
2022/12/30 11:30:39;;;;;;;0.40;0.40;;;;;;;8.44;70.83;100076.25;5122991;28;20061;-84
2022/12/30 11:33:24;;;;;;;0.45;0.45;;;;;;;8.41;70.69;100068.50;5136876;28;20340;-85
2022/12/30 11:36:15;;;;;;;0.30;0.30;;;;;;;8.41;70.57;100065.88;5122225;28;20065;-85
2022/12/30 11:38:50;;;;;;;1.35;1.25;;;;;;;8.43;70.59;100045.78;5135414;28;20112;-84
2022/12/30 11:41:29;;;;;;;0.77;0.77;;;;;;;8.39;70.83;100031.06;5129253;28;20090;-85
2022/12/30 11:43:59;;;;;;;0.88;0.50;;;;;;;8.40;70.39;100026.72;5156821;28;20484;-83
2022/12/30 11:46:40;;;;;;;0.20;0.20;;;;;;;8.42;70.53;100017.09;5139021;28;20043;-83
2022/12/30 11:49:33;;;;;;;0.30;0.30;;;;;;;8.42;70.88;100019.69;5140597;28;20062;-83
2022/12/30 11:52:04;;;;;;;0.30;0.30;;;;;;;8.47;70.07;99999.53;5137939;28;20331;-85
2022/12/30 11:54:42;;;;;;;0.73;0.73;;;;;;;8.44;70.46;100000.44;5127254;28;20114;-83
2022/12/30 11:57:50;;;;;;;0.28;0.28;;;;;;;8.49;70.24;99990.72;5129289;28;20023;-83
2022/12/30 12:00:20;;;;;;;0.30;0.30;;;;;;;8.45;69.80;99994.31;5053205;29;20114;-83
2022/12/30 12:03:01;;;;;;;0.30;0.30;;;;;;;8.49;70.51;99988.09;5108213;28;20141;-83
2022/12/30 12:05:41;;;;;;;0.30;0.30;;;;;;;8.47;70.41;99987.28;5119251;28;20121;-83
2022/12/30 12:08:12;;;;;;;0.20;0.20;;;;;;;8.44;70.33;99974.31;5115306;28;20027;-85
2022/12/30 12:11:06;;;;;;;0.63;0.63;;;;;;;8.49;70.64;99958.50;5128178;28;20070;-84
2022/12/30 12:14:04;;;;;;;0.50;0.50;;;;;;;8.44;70.48;99942.94;5104507;28;20093;-84
2022/12/30 12:16:50;;;;;;;7.57;2.25;;;;;;;8.51;70.00;99941.03;5116508;28;20051;-83
2022/12/30 12:19:33;;;;;;;0.30;0.30;;;;;;;8.47;70.25;99927.16;5116182;28;20031;-84
2022/12/30 12:22:23;;;;;;;0.30;0.30;;;;;;;8.46;70.12;99933.28;5123517;28;20033;-84
2022/12/30 12:25:02;;;;;;;0.30;0.30;;;;;;;8.47;70.43;99919.31;5134906;28;20105;-86
2022/12/30 12:27:33;;;;;;;0.30;0.30;;;;;;;8.62;70.45;99906.69;5144528;28;20030;-84
2022/12/30 12:30:10;;;;;;;0.22;0.22;;;;;;;8.54;70.21;99901.69;5112886;28;20120;-84
2022/12/30 12:32:47;;;;;;;0.30;0.30;;;;;;;8.55;70.18;99885.09;5127194;28;20462;-84
2022/12/30 12:35:46;;;;;;;0.70;0.70;;;;;;;8.58;70.58;99878.91;5096696;28;20054;-86
2022/12/30 12:38:26;;;;;;;0.40;0.40;;;;;;;8.58;70.09;99868.44;5111227;28;20406;-83
2022/12/30 12:41:31;;;;;;;0.50;0.50;;;;;;;8.64;70.47;99861.28;5132889;28;20050;-83
2022/12/30 12:44:17;;;;;;;0.22;0.22;;;;;;;8.57;70.24;99857.16;5125351;28;20054;-82
2022/12/30 12:46:57;;;;;;;1.25;1.15;;;;;;;8.57;70.28;99845.81;5126608;28;20070;-83
2022/12/30 12:49:46;;;;;;;0.30;0.30;;;;;;;8.62;70.47;99843.94;5110222;28;20161;-83
2022/12/30 12:52:35;;;;;;;0.40;0.40;;;;;;;8.62;70.33;99841.31;5133872;28;20070;-84
2022/12/30 12:55:24;;;;;;;0.25;0.25;;;;;;;8.61;71.39;99832.59;5125961;28;20252;-85
2022/12/30 12:58:13;;;;;;;0.40;0.40;;;;;;;8.58;71.92;99819.66;5118927;28;20041;-85
2022/12/30 13:01:08;;;;;;;0.25;0.25;;;;;;;8.61;71.93;99795.16;5125612;28;20049;-85
2022/12/30 13:03:54;;;;;;;0.20;0.20;;;;;;;8.60;72.45;99791.66;5118833;28;20058;-84
2022/12/30 13:06:34;;;;;;;0.50;0.50;;;;;;;8.61;72.84;99779.47;5111909;28;20529;-83
2022/12/30 13:09:30;;;;;;;0.40;0.40;;;;;;;8.59;73.62;99781.25;5134743;28;20038;-84